Time;durP1;ratioP1;P1;durP2;ratioP2;P2;SDS_P1;SDS_P2;PMS_P1;PMS_P2;Temp;Humidity;BMP_temperature;BMP_pressure;BME280_temperature;BME280_humidity;BME280_pressure;Samples;Min_cycle;Max_cycle;Signal;HPM_P1;HPM_P2
2023/04/08 00:00:40;;;;;;;5.97;3.78;;;;;;;3.30;100.00;102382.91;4938912;28;20084;-74
2023/04/08 00:03:06;;;;;;;6.85;4.13;;;;;;;3.28;100.00;102384.63;4955419;28;20065;-73
2023/04/08 00:05:33;;;;;;;7.15;4.22;;;;;;;3.26;100.00;102386.34;4970230;28;20413;-73
2023/04/08 00:07:58;;;;;;;7.25;4.65;;;;;;;3.24;100.00;102390.69;4972389;28;20068;-72
2023/04/08 00:10:25;;;;;;;7.72;4.10;;;;;;;3.22;100.00;102384.56;4939901;28;21634;-73
2023/04/08 00:12:51;;;;;;;6.72;4.10;;;;;;;3.21;100.00;102390.69;4971781;28;20434;-72
2023/04/08 00:15:16;;;;;;;6.63;4.35;;;;;;;3.19;100.00;102385.41;4970575;28;20047;-73
2023/04/08 00:17:42;;;;;;;6.53;3.92;;;;;;;3.17;100.00;102391.50;4938718;28;20139;-73
2023/04/08 00:20:08;;;;;;;7.70;4.25;;;;;;;3.17;100.00;102391.50;4938905;28;20030;-73
2023/04/08 00:22:34;;;;;;;6.70;3.67;;;;;;;3.17;100.00;102396.72;4973224;28;21339;-73
2023/04/08 00:25:00;;;;;;;6.97;3.85;;;;;;;3.16;100.00;102389.75;4936554;28;20749;-73
2023/04/08 00:27:26;;;;;;;6.15;3.88;;;;;;;3.15;100.00;102393.22;4953864;28;20137;-73
2023/04/08 00:29:51;;;;;;;6.45;3.92;;;;;;;3.14;100.00;102402.81;4971262;28;20030;-73
2023/04/08 00:32:17;;;;;;;8.32;4.70;;;;;;;3.14;100.00;102401.94;4936613;28;20148;-72
2023/04/08 00:34:42;;;;;;;5.65;4.18;;;;;;;3.09;100.00;102394.91;4971879;28;20037;-72
2023/04/08 00:37:08;;;;;;;8.20;4.40;;;;;;;3.07;100.00;102394.03;4971016;28;20609;-72
2023/04/08 00:39:34;;;;;;;7.28;4.30;;;;;;;3.05;100.00;102400.97;4971164;28;20066;-73
2023/04/08 00:42:00;;;;;;;6.97;4.22;;;;;;;3.03;100.00;102394.84;4952244;28;20040;-73
2023/04/08 00:44:26;;;;;;;8.52;4.28;;;;;;;3.02;100.00;102400.06;4954222;28;20031;-72
2023/04/08 00:46:52;;;;;;;8.85;4.57;;;;;;;3.00;100.00;102400.06;4953385;28;20047;-73
2023/04/08 00:49:18;;;;;;;5.93;4.05;;;;;;;2.99;100.00;102403.50;4971464;28;20537;-74
2023/04/08 00:51:43;;;;;;;8.60;5.07;;;;;;;2.97;100.00;102415.72;4969523;28;20034;-73
2023/04/08 00:54:09;;;;;;;8.43;4.72;;;;;;;2.96;100.00;102400.88;4971868;28;20676;-73
2023/04/08 00:56:35;;;;;;;8.35;4.97;;;;;;;2.96;100.00;102406.97;4970772;28;20759;-72
2023/04/08 00:59:01;;;;;;;5.90;4.10;;;;;;;2.94;100.00;102408.69;4951554;28;20038;-73
2023/04/08 01:01:48;;;;;;;7.80;5.00;;;;;;;2.93;100.00;102412.19;4944477;28;20233;-73
2023/04/08 01:04:17;;;;;;;10.23;4.65;;;;;;;2.92;100.00;102414.78;4944716;28;20038;-74
2023/04/08 01:06:45;;;;;;;6.95;4.43;;;;;;;2.89;100.00;102412.13;4971301;28;20061;-72
2023/04/08 01:09:12;;;;;;;7.20;4.40;;;;;;;2.87;100.00;102413.84;4951701;28;20034;-73
2023/04/08 01:11:42;;;;;;;7.97;4.30;;;;;;;2.85;100.00;102414.69;4938853;28;20041;-73
2023/04/08 01:14:09;;;;;;;6.30;4.60;;;;;;;2.83;100.00;102420.78;4969382;28;20525;-72
2023/04/08 01:16:44;;;;;;;8.75;4.65;;;;;;;2.78;100.00;102415.47;4936714;28;20485;-72
2023/04/08 01:19:17;;;;;;;7.30;4.18;;;;;;;2.76;100.00;102413.69;4936863;28;20038;-73
2023/04/08 01:21:42;;;;;;;;;;;;;;;2.72;100.00;102416.28;4953842;28;20026;-73
2023/04/08 01:24:12;;;;;;;7.45;4.25;;;;;;;2.68;100.00;102417.09;4930116;28;20411;-73
2023/04/08 01:26:38;;;;;;;8.43;4.85;;;;;;;2.68;100.00;102416.25;4969270;28;20125;-73
2023/04/08 01:29:05;;;;;;;8.70;4.97;;;;;;;2.64;100.00;102423.16;4945088;28;20121;-73
2023/04/08 01:31:30;;;;;;;8.68;5.03;;;;;;;2.61;100.00;102420.50;4953285;28;20033;-73
2023/04/08 01:33:56;;;;;;;9.93;5.38;;;;;;;2.60;100.00;102417.88;4952472;28;20030;-73
2023/04/08 01:36:23;;;;;;;9.68;5.35;;;;;;;2.59;100.00;102424.84;4950704;28;20034;-73
2023/04/08 01:38:49;;;;;;;9.00;5.10;;;;;;;2.56;100.00;102423.06;4953420;28;20040;-71
2023/04/08 01:41:16;;;;;;;8.80;5.00;;;;;;;2.54;100.00;102427.41;4952597;28;20030;-74
2023/04/08 01:43:42;;;;;;;8.50;4.50;;;;;;;2.53;100.00;102424.75;4949773;28;20042;-72
2023/04/08 01:46:09;;;;;;;7.68;5.18;;;;;;;2.51;100.00;102418.63;4951922;28;20042;-72
2023/04/08 01:48:35;;;;;;;9.02;4.85;;;;;;;2.49;100.00;102436.91;4952118;28;20038;-73
2023/04/08 01:51:01;;;;;;;8.88;5.22;;;;;;;2.48;100.00;102431.66;4952801;28;20596;-72
2023/04/08 01:53:26;;;;;;;9.88;5.68;;;;;;;2.45;100.00;102429.88;4934922;28;20104;-72
2023/04/08 01:55:57;;;;;;;8.90;5.53;;;;;;;2.43;100.00;102427.25;4969896;28;20225;-73
2023/04/08 01:58:23;;;;;;;8.32;5.50;;;;;;;2.41;100.00;102431.56;4952730;28;20241;-73
2023/04/08 02:00:50;;;;;;;9.13;5.85;;;;;;;2.39;100.00;102432.41;4939397;28;20406;-72
2023/04/08 02:03:18;;;;;;;10.60;5.72;;;;;;;2.38;100.00;102431.53;4936013;28;20037;-73
2023/04/08 02:05:43;;;;;;;11.88;5.93;;;;;;;2.38;100.00;102428.91;4935565;28;21507;-72
2023/04/08 02:08:09;;;;;;;8.65;5.47;;;;;;;2.37;100.00;102426.28;4949962;28;20511;-73
2023/04/08 02:10:34;;;;;;;10.93;6.13;;;;;;;2.36;100.00;102428.03;4949922;28;20466;-74
2023/04/08 02:13:00;;;;;;;10.90;6.90;;;;;;;2.36;100.00;102432.34;4944334;28;20389;-72
2023/04/08 02:15:28;;;;;;;12.13;6.60;;;;;;;2.34;100.00;102426.25;4951376;28;20046;-72
2023/04/08 02:17:55;;;;;;;12.93;7.18;;;;;;;2.31;100.00;102430.53;4939340;28;20757;-73
2023/04/08 02:20:23;;;;;;;10.95;6.65;;;;;;;2.29;100.00;102431.41;4950089;28;20112;-72
2023/04/08 02:23:07;;;;;;;11.88;6.78;;;;;;;2.27;100.00;102434.00;4970104;28;20123;-72
2023/04/08 02:25:38;;;;;;;13.18;6.43;;;;;;;2.26;100.00;102432.22;4969989;28;20305;-73
2023/04/08 02:28:05;;;;;;;13.48;7.00;;;;;;;2.26;100.00;102427.00;4940826;28;20034;-72
2023/04/08 02:30:31;;;;;;;14.00;6.63;;;;;;;2.24;100.00;102428.69;4967241;28;20490;-73
2023/04/08 02:32:57;;;;;;;11.63;6.68;;;;;;;2.25;100.00;102429.59;4970024;28;20093;-72
2023/04/08 02:35:23;;;;;;;13.63;6.90;;;;;;;2.23;100.00;102429.56;4951984;28;20088;-73
2023/04/08 02:37:49;;;;;;;15.20;7.57;;;;;;;2.21;100.00;102426.06;4968277;28;20515;-73
2023/04/08 02:40:29;;;;;;;12.73;7.47;;;;;;;2.19;100.00;102424.28;4966733;28;20112;-72
2023/04/08 02:42:55;;;;;;;14.85;7.68;;;;;;;2.17;100.00;102426.84;4952176;28;20057;-73
2023/04/08 02:45:21;;;;;;;14.43;7.38;;;;;;;2.16;100.00;102435.56;4970303;28;20122;-72
2023/04/08 02:47:47;;;;;;;13.25;7.65;;;;;;;2.14;100.00;102440.75;4950754;28;20497;-73
2023/04/08 02:50:12;;;;;;;14.60;7.93;;;;;;;2.12;100.00;102449.44;4969217;28;20391;-73
2023/04/08 02:52:38;;;;;;;15.77;8.07;;;;;;;2.12;100.00;102442.47;4920731;28;20654;-74
2023/04/08 02:55:05;;;;;;;14.82;7.75;;;;;;;2.11;100.00;102445.03;4950159;28;20120;-72
2023/04/08 02:57:31;;;;;;;13.75;7.88;;;;;;;2.07;100.00;102440.66;4954184;28;20034;-73
2023/04/08 02:59:57;;;;;;;15.15;7.55;;;;;;;2.08;100.00;102447.63;4962578;28;20045;-74
2023/04/08 03:02:22;;;;;;;15.77;8.02;;;;;;;2.06;100.00;102444.13;4973065;28;20038;-73
2023/04/08 03:04:48;;;;;;;14.30;7.82;;;;;;;2.03;100.00;102451.03;4971623;28;20053;-73
2023/04/08 03:07:13;;;;;;;12.30;7.72;;;;;;;1.99;100.00;102454.47;4973111;28;20046;-73
2023/04/08 03:09:39;;;;;;;14.75;7.85;;;;;;;1.97;100.00;102463.13;4973622;28;20318;-73
2023/04/08 03:12:05;;;;;;;15.63;8.40;;;;;;;1.97;100.00;102461.38;4973578;28;20065;-73
2023/04/08 03:14:31;;;;;;;14.18;7.70;;;;;;;1.97;100.00;102465.75;4944434;28;20046;-73
2023/04/08 03:16:56;;;;;;;14.63;8.02;;;;;;;1.96;100.00;102464.00;4974081;28;20108;-73
2023/04/08 03:19:22;;;;;;;16.45;8.52;;;;;;;1.94;100.00;102453.50;4973495;28;20038;-74
2023/04/08 03:21:47;;;;;;;18.52;9.57;;;;;;;1.92;100.00;102460.44;4971091;28;20030;-73
2023/04/08 03:24:13;;;;;;;17.05;8.43;;;;;;;1.89;100.00;102463.00;4972765;28;20523;-73
2023/04/08 03:26:38;;;;;;;16.25;8.38;;;;;;;1.89;100.00;102465.59;4971598;28;20065;-74
2023/04/08 03:29:05;;;;;;;18.45;9.18;;;;;;;1.88;100.00;102463.84;4955165;28;20076;-73
2023/04/08 03:31:31;;;;;;;20.17;8.65;;;;;;;1.88;100.00;102466.47;4970257;28;20317;-73
2023/04/08 03:33:57;;;;;;;17.27;9.27;;;;;;;1.86;100.00;102468.19;4972809;28;20042;-73
2023/04/08 03:36:22;;;;;;;17.67;9.30;;;;;;;1.87;100.00;102473.41;4973567;28;20050;-73
2023/04/08 03:38:48;;;;;;;17.38;10.10;;;;;;;1.87;100.00;102469.94;4955496;28;20069;-74
2023/04/08 03:41:13;;;;;;;17.67;9.82;;;;;;;1.87;100.00;102476.03;4971186;28;20054;-73
2023/04/08 03:43:39;;;;;;;17.73;9.43;;;;;;;1.88;100.00;102476.91;4938619;28;20050;-73
2023/04/08 03:46:04;;;;;;;20.67;10.20;;;;;;;1.88;100.00;102471.69;4939399;28;20034;-73
2023/04/08 03:48:33;;;;;;;18.48;9.85;;;;;;;1.89;100.00;102474.34;4954137;28;20114;-73
2023/04/08 03:50:58;;;;;;;19.02;9.48;;;;;;;1.90;100.00;102480.41;4954692;28;20049;-73
2023/04/08 03:53:26;;;;;;;20.33;9.82;;;;;;;1.89;100.00;102473.44;4972307;28;20042;-71
2023/04/08 03:55:52;;;;;;;19.83;9.75;;;;;;;1.89;100.00;102473.44;4973225;28;20042;-74
2023/04/08 03:58:18;;;;;;;20.95;10.10;;;;;;;1.90;100.00;102475.19;4953996;28;20044;-71
2023/04/08 04:00:43;;;;;;;21.08;9.82;;;;;;;1.88;100.00;102480.41;4972694;28;20034;-73
2023/04/08 04:03:11;;;;;;;19.85;9.80;;;;;;;1.88;100.00;102484.75;4962050;28;20102;-73
2023/04/08 04:05:38;;;;;;;19.42;10.02;;;;;;;1.88;100.00;102485.63;4938360;28;20062;-73
2023/04/08 04:08:08;;;;;;;19.90;10.70;;;;;;;1.88;100.00;102484.75;4937161;28;20109;-74
2023/04/08 04:10:34;;;;;;;20.00;10.10;;;;;;;1.88;100.00;102487.38;4954289;28;20034;-71
2023/04/08 04:13:00;;;;;;;22.42;10.90;;;;;;;1.86;100.00;102487.31;4955104;28;20048;-73
2023/04/08 04:15:25;;;;;;;22.98;10.63;;;;;;;1.86;100.00;102489.06;4971023;28;20033;-73
2023/04/08 04:17:51;;;;;;;20.02;10.73;;;;;;;1.83;100.00;102484.69;4954791;28;20140;-72
2023/04/08 04:20:17;;;;;;;19.30;10.40;;;;;;;1.82;100.00;102492.47;4971951;28;20046;-72
2023/04/08 04:22:42;;;;;;;20.23;10.20;;;;;;;1.83;100.00;102491.63;4954089;28;21262;-73
2023/04/08 04:25:08;;;;;;;22.27;10.75;;;;;;;1.83;100.00;102500.34;4970581;28;20133;-73
2023/04/08 04:27:37;;;;;;;26.45;11.38;;;;;;;1.84;100.00;102501.22;4954515;28;20037;-72
2023/04/08 04:30:03;;;;;;;23.63;11.30;;;;;;;1.84;100.00;102506.44;4972513;28;20042;-73
2023/04/08 04:32:29;;;;;;;22.33;11.30;;;;;;;1.82;100.00;102502.94;4953943;28;20031;-73
2023/04/08 04:34:54;;;;;;;24.95;12.15;;;;;;;1.81;100.00;102515.13;4952424;28;20049;-73
2023/04/08 04:37:20;;;;;;;23.95;11.07;;;;;;;1.79;100.00;102510.72;4954780;28;20121;-73
2023/04/08 04:39:46;;;;;;;21.52;11.55;;;;;;;1.79;100.00;102526.38;4971687;28;20069;-73
2023/04/08 04:42:11;;;;;;;23.80;11.15;;;;;;;1.79;100.00;102524.63;4970462;28;20045;-72
2023/04/08 04:44:37;;;;;;;23.38;11.00;;;;;;;1.79;100.00;102526.38;4928837;28;20042;-73
2023/04/08 04:47:02;;;;;;;22.13;11.57;;;;;;;1.79;100.00;102539.44;4970704;28;20546;-73
2023/04/08 04:49:28;;;;;;;25.00;11.38;;;;;;;1.79;100.00;102524.63;4952889;28;20042;-73
2023/04/08 04:51:54;;;;;;;23.20;11.82;;;;;;;1.81;100.00;102529.91;4970369;28;20121;-73
2023/04/08 04:54:19;;;;;;;25.17;12.40;;;;;;;1.85;100.00;102534.34;4968696;28;20053;-73
2023/04/08 04:56:45;;;;;;;27.48;12.07;;;;;;;1.87;100.00;102535.25;4971099;28;20124;-74
2023/04/08 04:59:11;;;;;;;24.20;12.30;;;;;;;1.92;100.00;102535.31;4970401;28;20233;-74
2023/04/08 05:01:37;;;;;;;26.73;13.57;;;;;;;1.93;100.00;102542.28;4969685;28;20561;-73
2023/04/08 05:04:02;;;;;;;24.42;12.73;;;;;;;1.93;100.00;102540.56;4952548;28;20034;-73
2023/04/08 05:06:28;;;;;;;26.67;12.70;;;;;;;1.94;100.00;102541.44;4971401;28;20030;-73
2023/04/08 05:08:53;;;;;;;28.42;13.65;;;;;;;1.97;100.00;102549.34;4953564;28;20615;-73
2023/04/08 05:11:20;;;;;;;27.20;13.30;;;;;;;1.97;100.00;102539.75;4968985;28;20652;-73
2023/04/08 05:13:46;;;;;;;29.33;13.73;;;;;;;1.99;100.00;102548.53;4971550;28;20045;-73
2023/04/08 05:16:12;;;;;;;27.60;12.90;;;;;;;1.99;100.00;102539.78;4971257;28;20061;-74
2023/04/08 05:18:37;;;;;;;31.33;13.50;;;;;;;2.00;100.00;102539.84;4967658;28;20123;-73
2023/04/08 05:21:03;;;;;;;27.48;13.68;;;;;;;2.01;100.00;102546.81;4969606;28;20069;-73
2023/04/08 05:23:28;;;;;;;29.70;13.32;;;;;;;2.01;100.00;102544.19;4937741;28;20260;-73
2023/04/08 05:25:54;;;;;;;36.30;14.10;;;;;;;2.02;100.00;102545.94;4971751;28;20034;-73
2023/04/08 05:28:19;;;;;;;25.88;13.07;;;;;;;2.01;100.00;102552.03;4967969;28;20038;-72
2023/04/08 05:30:49;;;;;;;31.77;13.85;;;;;;;2.04;100.00;102551.22;4953032;28;20030;-73
2023/04/08 05:33:15;;;;;;;26.63;12.95;;;;;;;2.05;100.00;102554.72;4956699;28;20134;-73
2023/04/08 05:35:41;;;;;;;29.70;13.80;;;;;;;2.04;100.00;102556.44;4953677;28;20054;-73
2023/04/08 05:38:06;;;;;;;27.50;13.43;;;;;;;2.05;100.00;102563.41;4965496;28;20211;-71
2023/04/08 05:40:32;;;;;;;32.55;14.60;;;;;;;2.05;100.00;102563.41;4939873;28;20053;-72
2023/04/08 05:42:57;;;;;;;30.85;14.65;;;;;;;2.06;100.00;102559.94;4953020;28;20072;-71
2023/04/08 05:45:22;;;;;;;32.30;13.80;;;;;;;2.07;100.00;102558.22;4949424;28;20540;-72
2023/04/08 05:47:48;;;;;;;28.48;14.48;;;;;;;2.11;100.00;102563.53;4952882;28;20038;-73
2023/04/08 05:50:14;;;;;;;26.77;13.38;;;;;;;2.15;100.00;102564.47;4952713;28;20033;-73
2023/04/08 05:52:43;;;;;;;31.10;14.10;;;;;;;2.20;100.00;102567.16;4953383;28;20560;-71
2023/04/08 05:55:10;;;;;;;29.95;14.05;;;;;;;2.25;100.00;102575.97;4948508;28;20125;-72
2023/04/08 05:57:35;;;;;;;31.92;14.85;;;;;;;2.28;100.00;102570.78;4937075;28;20045;-73
2023/04/08 06:00:02;;;;;;;31.08;14.82;;;;;;;2.34;100.00;102570.00;4953067;28;20034;-71
2023/04/08 06:02:35;;;;;;;31.00;14.85;;;;;;;2.39;100.00;102570.97;4953115;28;20046;-73
2023/04/08 06:05:01;;;;;;;32.58;15.23;;;;;;;2.49;100.00;102575.50;4970305;28;20038;-73
2023/04/08 06:07:26;;;;;;;30.52;14.95;;;;;;;2.56;100.00;102577.34;4970372;28;20094;-72
2023/04/08 06:09:52;;;;;;;33.88;15.60;;;;;;;2.62;100.00;102567.84;4969363;28;20488;-72
2023/04/08 06:12:17;;;;;;;32.05;15.20;;;;;;;2.68;100.00;102570.56;4968457;28;20050;-73
2023/04/08 06:14:43;;;;;;;39.00;15.73;;;;;;;2.73;100.00;102581.97;4953270;28;20041;-73
2023/04/08 06:17:09;;;;;;;33.75;16.45;;;;;;;2.79;100.00;102583.78;4952565;28;20053;-73
2023/04/08 06:19:34;;;;;;;39.25;16.20;;;;;;;2.85;100.00;102589.13;4951406;28;20116;-73
2023/04/08 06:22:00;;;;;;;30.80;15.52;;;;;;;2.92;100.00;102583.13;4950685;28;20038;-73
2023/04/08 06:24:26;;;;;;;37.67;16.95;;;;;;;3.02;100.00;102586.75;4921145;28;20097;-72
2023/04/08 06:26:52;;;;;;;37.88;16.50;;;;;;;3.11;100.00;102592.09;4966263;28;20038;-72
2023/04/08 06:29:25;;;;;;;36.97;16.90;;;;;;;3.17;100.00;102591.31;4953068;28;20540;-73
2023/04/08 06:31:50;;;;;;;40.35;17.77;;;;;;;3.19;100.00;102594.84;4970040;28;20058;-73
2023/04/08 06:34:16;;;;;;;35.45;15.90;;;;;;;3.22;100.00;102596.63;4971061;28;20077;-73
2023/04/08 06:36:41;;;;;;;40.55;17.50;;;;;;;3.24;100.00;102607.97;4970302;28;20043;-73
2023/04/08 06:39:07;;;;;;;40.15;17.70;;;;;;;3.24;100.00;102603.63;4967493;28;20047;-73
2023/04/08 06:41:32;;;;;;;33.60;15.57;;;;;;;3.26;100.00;102607.16;4969838;28;20045;-74
2023/04/08 06:43:58;;;;;;;32.55;16.15;;;;;;;3.30;100.00;102607.16;4968917;28;20547;-73
2023/04/08 06:46:24;;;;;;;34.72;16.33;;;;;;;3.33;100.00;102610.72;4970617;28;20046;-72
2023/04/08 06:48:50;;;;;;;29.38;15.35;;;;;;;3.37;100.00;102615.13;4968422;28;20044;-72
2023/04/08 06:51:15;;;;;;;32.20;16.95;;;;;;;3.45;100.00;102623.09;4952848;28;20066;-73
2023/04/08 06:53:41;;;;;;;36.00;15.25;;;;;;;3.51;100.00;102622.28;4970123;28;20054;-72
2023/04/08 06:56:12;;;;;;;36.47;16.48;;;;;;;3.59;100.00;102632.88;4951732;28;20650;-72
2023/04/08 06:58:38;;;;;;;33.40;15.93;;;;;;;3.73;100.00;102622.56;4970914;28;20366;-72
2023/04/08 07:01:03;;;;;;;33.03;14.88;;;;;;;3.86;100.00;102619.22;4952888;28;20864;-72
2023/04/08 07:03:29;;;;;;;37.95;16.48;;;;;;;3.96;100.00;102635.06;4970572;28;20038;-72
2023/04/08 07:05:55;;;;;;;42.92;19.40;;;;;;;4.03;100.00;102637.75;4968699;28;20046;-72
2023/04/08 07:08:20;;;;;;;45.92;19.80;;;;;;;4.12;100.00;102641.31;4951698;28;20034;-71
2023/04/08 07:10:46;;;;;;;43.55;20.02;;;;;;;4.26;100.00;102641.47;4969811;28;20044;-71
2023/04/08 07:13:12;;;;;;;43.80;20.05;;;;;;;4.40;100.00;102649.47;4951623;28;20039;-72
2023/04/08 07:15:37;;;;;;;45.60;19.52;;;;;;;4.48;100.00;102655.69;4967578;28;20532;-72
2023/04/08 07:18:03;;;;;;;39.97;18.63;;;;;;;4.54;100.00;102647.88;4951847;28;20448;-72
2023/04/08 07:20:29;;;;;;;38.45;16.23;;;;;;;4.58;100.00;102654.88;4950010;28;20145;-73
2023/04/08 07:22:54;;;;;;;35.33;16.17;;;;;;;4.60;100.00;102654.91;4966231;28;20045;-72
2023/04/08 07:25:20;;;;;;;35.55;15.55;;;;;;;4.62;100.00;102656.66;4940553;28;20136;-72
2023/04/08 07:27:45;;;;;;;37.03;16.67;;;;;;;4.66;100.00;102662.81;4951583;28;20066;-72
2023/04/08 07:30:11;;;;;;;35.15;17.00;;;;;;;4.70;100.00;102656.75;4968965;28;20038;-72
2023/04/08 07:32:37;;;;;;;38.75;17.52;;;;;;;4.81;100.00;102658.56;4967164;28;20126;-72
2023/04/08 07:35:02;;;;;;;34.95;16.15;;;;;;;4.88;100.00;102663.00;4968280;28;20039;-72
2023/04/08 07:37:28;;;;;;;32.85;15.57;;;;;;;4.92;100.00;102664.78;4969171;28;20138;-72
2023/04/08 07:39:54;;;;;;;24.80;13.13;;;;;;;4.93;100.00;102668.28;4919328;28;20058;-72
2023/04/08 07:42:20;;;;;;;26.70;13.50;;;;;;;4.95;100.00;102670.03;4941447;28;20030;-72
2023/04/08 07:44:46;;;;;;;32.35;14.02;;;;;;;5.05;100.00;102665.75;4970585;28;20049;-72
2023/04/08 07:47:12;;;;;;;29.48;13.70;;;;;;;5.15;100.00;102669.31;4938833;28;20671;-71
2023/04/08 07:49:37;;;;;;;27.33;13.63;;;;;;;5.28;100.00;102665.88;4970371;28;20057;-73
2023/04/08 07:52:04;;;;;;;28.45;14.10;;;;;;;5.42;100.00;102657.22;4970712;28;20128;-73
2023/04/08 07:54:32;;;;;;;26.30;12.82;;;;;;;5.53;100.00;102663.41;4971205;28;20065;-72
2023/04/08 07:56:58;;;;;;;29.25;14.30;;;;;;;5.62;100.00;102664.31;4955680;28;20175;-72
2023/04/08 07:59:24;;;;;;;29.92;14.52;;;;;;;5.69;100.00;102666.09;4920914;28;20256;-72
2023/04/08 08:01:50;;;;;;;25.45;12.73;;;;;;;5.69;100.00;102671.34;4954957;28;20073;-73
2023/04/08 08:04:16;;;;;;;25.73;12.30;;;;;;;5.63;100.00;102666.06;4954797;28;20117;-72
2023/04/08 08:06:41;;;;;;;25.35;12.50;;;;;;;5.59;100.00;102670.44;4972783;28;20065;-73
2023/04/08 08:09:07;;;;;;;27.23;13.45;;;;;;;5.60;100.00;102661.66;4968156;28;20096;-73
2023/04/08 08:11:32;;;;;;;26.73;12.70;;;;;;;5.64;100.00;102671.34;4972213;28;20038;-73
2023/04/08 08:13:58;;;;;;;24.60;12.43;;;;;;;5.71;100.00;102677.47;4971734;28;20046;-72
2023/04/08 08:16:27;;;;;;;22.63;11.88;;;;;;;5.73;100.00;102678.38;4954195;28;20473;-72
2023/04/08 08:18:52;;;;;;;22.33;11.73;;;;;;;5.79;100.00;102683.69;4970721;28;20120;-73
2023/04/08 08:21:18;;;;;;;21.80;10.88;;;;;;;5.90;100.00;102675.81;4972656;28;20046;-74
2023/04/08 08:23:43;;;;;;;21.05;10.98;;;;;;;5.94;100.00;102682.84;4953856;28;21988;-73
2023/04/08 08:26:09;;;;;;;23.13;11.95;;;;;;;5.96;100.00;102691.63;4970267;28;20039;-73
2023/04/08 08:28:35;;;;;;;21.90;11.27;;;;;;;6.03;100.00;102689.03;4971842;28;20030;-72
2023/04/08 08:31:02;;;;;;;20.85;10.77;;;;;;;6.08;100.00;102680.28;4971306;28;20038;-73
2023/04/08 08:33:28;;;;;;;20.73;10.27;;;;;;;6.16;100.00;102687.31;4971920;28;20038;-73
2023/04/08 08:35:54;;;;;;;21.60;10.63;;;;;;;6.22;100.00;102692.59;4970467;28;20572;-72
2023/04/08 08:38:19;;;;;;;18.70;10.35;;;;;;;6.30;100.00;102689.97;4952746;28;20482;-74
2023/04/08 08:40:45;;;;;;;20.00;10.80;;;;;;;6.25;100.00;102692.59;4953101;28;20062;-73
2023/04/08 08:43:11;;;;;;;17.67;10.27;;;;;;;6.26;100.00;102696.97;4937794;28;20498;-72
2023/04/08 08:45:40;;;;;;;21.75;11.43;;;;;;;6.29;100.00;102694.38;4969049;28;20081;-74
2023/04/08 08:48:07;;;;;;;22.30;11.35;;;;;;;6.30;100.00;102684.72;4972386;28;20045;-73
2023/04/08 08:50:34;;;;;;;19.80;10.77;;;;;;;6.30;100.00;102689.97;4944665;28;20584;-73
2023/04/08 08:53:00;;;;;;;21.15;11.48;;;;;;;6.30;100.00;102689.97;4969609;28;20129;-73
2023/04/08 08:55:30;;;;;;;21.17;10.68;;;;;;;6.35;100.00;102683.88;4954264;28;20112;-73
2023/04/08 08:57:55;;;;;;;19.00;11.20;;;;;;;6.35;100.00;102691.75;4967134;28;20065;-73
2023/04/08 09:00:34;;;;;;;20.13;10.93;;;;;;;6.39;100.00;102693.50;4971720;28;20085;-73
2023/04/08 09:03:21;;;;;;;18.00;9.68;;;;;;;6.47;100.00;102690.91;4952119;28;20072;-74
2023/04/08 09:05:52;;;;;;;19.38;10.15;;;;;;;6.56;100.00;102700.56;4971324;28;20630;-73
2023/04/08 09:08:32;;;;;;;15.50;8.75;;;;;;;6.66;100.00;102704.94;4953783;28;20045;-73
2023/04/08 09:11:18;;;;;;;15.07;9.35;;;;;;;6.71;100.00;102701.44;4937002;28;20815;-73
2023/04/08 09:13:44;;;;;;;16.00;8.65;;;;;;;6.78;100.00;102696.19;4953189;28;20591;-73
2023/04/08 09:16:13;;;;;;;15.32;8.88;;;;;;;6.86;100.00;102700.59;4970352;28;20116;-73
2023/04/08 09:18:43;;;;;;;14.90;8.15;;;;;;;6.92;100.00;102704.06;4938172;28;20489;-73
2023/04/08 09:21:10;;;;;;;15.45;8.85;;;;;;;6.95;100.00;102700.56;4969436;28;20093;-73
2023/04/08 09:23:39;;;;;;;12.05;7.30;;;;;;;7.00;100.00;102700.56;4970548;28;20033;-74
2023/04/08 09:26:10;;;;;;;12.63;7.25;;;;;;;6.97;100.00;102701.44;4970593;28;20050;-73
2023/04/08 09:28:36;;;;;;;11.80;7.15;;;;;;;7.00;100.00;102705.81;4968957;28;20368;-74
2023/04/08 09:31:17;;;;;;;11.38;6.63;;;;;;;7.16;100.00;102709.31;4953628;28;20045;-73
2023/04/08 09:33:42;;;;;;;11.00;6.25;;;;;;;7.33;100.00;102699.66;4968183;28;20165;-74
2023/04/08 09:36:08;;;;;;;10.23;6.25;;;;;;;7.45;100.00;102706.66;4969803;28;20787;-74
2023/04/08 09:38:33;;;;;;;12.23;6.45;;;;;;;7.52;100.00;102702.22;4967238;28;20053;-73
2023/04/08 09:41:04;;;;;;;9.43;6.07;;;;;;;7.66;100.00;102703.94;4970830;28;20042;-74
2023/04/08 09:43:31;;;;;;;10.10;6.07;;;;;;;7.74;100.00;102713.59;4953495;28;20070;-74
2023/04/08 09:45:58;;;;;;;12.15;6.20;;;;;;;7.71;100.00;102712.72;4970864;28;20049;-72
2023/04/08 09:48:26;;;;;;;10.02;5.88;;;;;;;7.71;100.00;102710.06;4950913;28;20667;-73
2023/04/08 09:50:56;;;;;;;10.60;6.32;;;;;;;7.83;100.00;102714.41;4943417;28;20033;-73
2023/04/08 09:53:29;;;;;;;11.27;6.40;;;;;;;7.92;100.00;102709.13;4968344;28;20176;-72
2023/04/08 09:55:56;;;;;;;8.63;5.57;;;;;;;8.00;100.00;102703.78;4950751;28;20290;-72
2023/04/08 09:58:28;;;;;;;8.82;5.68;;;;;;;8.02;100.00;102704.69;4970525;28;20591;-72
2023/04/08 10:00:54;;;;;;;10.75;6.70;;;;;;;8.00;100.00;102704.69;4951388;28;20414;-74
2023/04/08 10:03:33;;;;;;;8.95;5.95;;;;;;;7.97;100.00;102703.81;4953455;28;20482;-73
2023/04/08 10:06:01;;;;;;;9.93;6.10;;;;;;;7.95;100.00;102710.88;4966022;28;20034;-73
2023/04/08 10:08:26;;;;;;;10.20;6.30;;;;;;;7.87;100.00;102709.16;4969984;28;20046;-73
2023/04/08 10:10:53;;;;;;;12.57;6.82;;;;;;;7.75;100.00;102711.84;4952157;28;20040;-73
2023/04/08 10:13:19;;;;;;;10.98;6.25;;;;;;;7.57;100.00;102710.13;4969753;28;20116;-73
2023/04/08 10:15:46;;;;;;;12.45;7.00;;;;;;;7.51;100.00;102697.84;4944931;28;20959;-74
2023/04/08 10:18:17;;;;;;;10.90;6.32;;;;;;;7.47;100.00;102707.50;4970154;28;20062;-74
2023/04/08 10:20:44;;;;;;;9.52;5.93;;;;;;;7.39;100.00;102706.66;4929026;28;20278;-74
2023/04/08 10:23:12;;;;;;;10.05;5.95;;;;;;;7.35;100.00;102699.63;4968166;28;20041;-73
2023/04/08 10:25:40;;;;;;;11.63;6.03;;;;;;;7.30;100.00;102698.78;4966631;28;20481;-73
2023/04/08 10:28:16;;;;;;;11.27;7.05;;;;;;;7.29;100.00;102699.63;4951385;28;20042;-73
2023/04/08 10:30:56;;;;;;;12.00;6.85;;;;;;;7.33;100.00;102701.41;4951999;28;20456;-73
2023/04/08 10:33:33;;;;;;;12.60;7.53;;;;;;;7.23;100.00;102699.69;4926871;28;1159236;-73
2023/04/08 10:36:01;;;;;;;10.93;7.00;;;;;;;7.18;100.00;102703.19;4966884;28;20153;-73
2023/04/08 10:38:27;;;;;;;12.63;7.07;;;;;;;7.22;100.00;102709.31;4952195;28;20061;-73
2023/04/08 10:40:53;;;;;;;14.65;7.32;;;;;;;7.27;100.00;102711.94;4949596;28;20026;-74
2023/04/08 10:43:23;;;;;;;12.30;7.47;;;;;;;7.23;100.00;102703.16;4943686;28;20444;-73
2023/04/08 10:45:51;;;;;;;11.48;7.10;;;;;;;7.27;100.00;102701.41;4969941;28;20039;-73
2023/04/08 10:48:23;;;;;;;12.02;7.13;;;;;;;7.29;100.00;102704.91;4969506;28;20037;-74
2023/04/08 10:50:59;;;;;;;10.15;6.97;;;;;;;7.27;100.00;102704.94;4951014;28;20044;-73
2023/04/08 10:53:28;;;;;;;12.15;7.40;;;;;;;7.22;100.00;102703.16;4969448;28;20508;-74
2023/04/08 10:56:05;;;;;;;11.98;7.40;;;;;;;7.18;100.00;102703.19;4969340;28;21014;-74
2023/04/08 10:58:32;;;;;;;14.25;7.75;;;;;;;7.19;100.00;102699.66;4949573;28;20098;-74
2023/04/08 11:01:07;;;;;;;14.90;7.88;;;;;;;7.19;100.00;102704.03;4936206;28;20030;-74
2023/04/08 11:03:36;;;;;;;13.57;7.65;;;;;;;7.21;100.00;102697.03;4937414;28;20043;-74
2023/04/08 11:06:02;;;;;;;11.25;6.82;;;;;;;7.23;100.00;102702.31;4952369;28;20084;-74
2023/04/08 11:08:32;;;;;;;10.13;7.00;;;;;;;7.27;100.00;102701.41;4951122;28;20520;-74
2023/04/08 11:11:00;;;;;;;10.70;6.88;;;;;;;7.32;100.00;102697.00;4969515;28;20515;-74
2023/04/08 11:13:27;;;;;;;13.48;7.25;;;;;;;7.31;100.00;102697.91;4951722;28;20042;-74